Terminal Aerodrome Forecast
Issued by NWS Houston/Galveston, TX

Home | Current Version | Previous Version | Text Only | Print | Product List | Glossary On
Versions: 1 2 3 4 5 6 7 8 9 10 11 12 13 14 15 16 17 18 19 20 21 22 23 24 25 26 27 28 29 30 31 32 33 34 35 36 37 38 39 40 41 42 43 44
000
FTUS44 KHGX 050520
TAFCLL
TAF
KCLL 050520Z 0506/0606 18007KT P6SM SCT020 SCT250
      TEMPO 0509/0513 18004KT 6SM BR BKN020
     FM051500 18011KT P6SM SCT030 SCT250
     FM051700 17013G19KT P6SM SCT040 SCT250
     FM060100 16010KT P6SM SCT035 BKN250=

USA.gov is the U.S. government's official web portal to all federal, state and local government web resources and services.